sensor_id;sensor_type;location;lat;lon;timestamp;pressure;altitude;pressure_sealevel;temperature;humidity
50292;BME280;36190;54.980;73.388;2023-03-19T00:00:22;100912.16;;;-6.15;70.40
50292;BME280;36190;54.980;73.388;2023-03-19T00:02:49;100926.28;;;-6.24;70.45
50292;BME280;36190;54.980;73.388;2023-03-19T00:05:17;100928.16;;;-6.29;70.34
50292;BME280;36190;54.980;73.388;2023-03-19T00:07:44;100956.13;;;-6.38;70.35
50292;BME280;36190;54.980;73.388;2023-03-19T00:10:12;100953.84;;;-6.50;70.32
50292;BME280;36190;54.980;73.388;2023-03-19T00:12:39;100953.16;;;-6.55;70.44
50292;BME280;36190;54.980;73.388;2023-03-19T00:15:07;100970.78;;;-6.67;70.28
50292;BME280;36190;54.980;73.388;2023-03-19T00:17:40;100975.31;;;-6.75;70.20
50292;BME280;36190;54.980;73.388;2023-03-19T00:20:09;100974.94;;;-6.93;70.05
50292;BME280;36190;54.980;73.388;2023-03-19T00:22:39;100971.78;;;-7.04;70.37
50292;BME280;36190;54.980;73.388;2023-03-19T00:25:07;100987.59;;;-7.13;70.44
50292;BME280;36190;54.980;73.388;2023-03-19T00:27:35;100986.13;;;-7.24;70.33
50292;BME280;36190;54.980;73.388;2023-03-19T00:30:04;100990.72;;;-7.35;70.54
50292;BME280;36190;54.980;73.388;2023-03-19T00:32:32;101003.00;;;-7.42;70.39
50292;BME280;36190;54.980;73.388;2023-03-19T00:35:02;100992.91;;;-7.54;70.61
50292;BME280;36190;54.980;73.388;2023-03-19T00:37:31;101002.63;;;-7.63;70.68
50292;BME280;36190;54.980;73.388;2023-03-19T00:39:58;101016.47;;;-7.64;70.73
50292;BME280;36190;54.980;73.388;2023-03-19T00:42:25;101018.28;;;-7.67;70.70
50292;BME280;36190;54.980;73.388;2023-03-19T00:44:53;101033.84;;;-7.67;70.48
50292;BME280;36190;54.980;73.388;2023-03-19T00:47:21;101023.59;;;-7.74;70.29
50292;BME280;36190;54.980;73.388;2023-03-19T00:49:48;101031.44;;;-7.77;70.36
50292;BME280;36190;54.980;73.388;2023-03-19T00:52:17;101041.75;;;-7.74;70.49
50292;BME280;36190;54.980;73.388;2023-03-19T00:54:45;101047.00;;;-7.77;70.47
50292;BME280;36190;54.980;73.388;2023-03-19T00:57:12;101051.38;;;-7.79;70.44
50292;BME280;36190;54.980;73.388;2023-03-19T00:59:40;101058.16;;;-7.75;70.36
50292;BME280;36190;54.980;73.388;2023-03-19T01:02:07;101072.09;;;-7.79;70.48
50292;BME280;36190;54.980;73.388;2023-03-19T01:04:35;101083.28;;;-7.77;70.26
50292;BME280;36190;54.980;73.388;2023-03-19T01:07:03;101091.94;;;-7.78;70.06
50292;BME280;36190;54.980;73.388;2023-03-19T01:09:32;101096.34;;;-7.83;70.01
50292;BME280;36190;54.980;73.388;2023-03-19T01:12:00;101099.84;;;-7.85;69.93
50292;BME280;36190;54.980;73.388;2023-03-19T01:14:29;101105.97;;;-7.88;69.99
50292;BME280;36190;54.980;73.388;2023-03-19T01:16:57;101119.75;;;-7.86;70.10
50292;BME280;36190;54.980;73.388;2023-03-19T01:19:24;101113.66;;;-7.83;70.07
50292;BME280;36190;54.980;73.388;2023-03-19T01:21:52;101120.63;;;-7.87;69.97
50292;BME280;36190;54.980;73.388;2023-03-19T01:24:19;101122.47;;;-7.92;70.15
50292;BME280;36190;54.980;73.388;2023-03-19T01:26:49;101132.91;;;-7.95;70.21
50292;BME280;36190;54.980;73.388;2023-03-19T01:29:16;101148.44;;;-7.95;70.14
50292;BME280;36190;54.980;73.388;2023-03-19T01:31:44;101155.44;;;-8.01;70.13
50292;BME280;36190;54.980;73.388;2023-03-19T01:34:11;101153.81;;;-8.05;70.20
50292;BME280;36190;54.980;73.388;2023-03-19T01:36:39;101160.69;;;-8.04;70.04
50292;BME280;36190;54.980;73.388;2023-03-19T01:39:07;101157.31;;;-8.09;69.96
50292;BME280;36190;54.980;73.388;2023-03-19T01:41:35;101148.66;;;-8.06;69.92
50292;BME280;36190;54.980;73.388;2023-03-19T01:44:26;101177.19;;;-8.09;69.50
50292;BME280;36190;54.980;73.388;2023-03-19T01:46:55;101180.78;;;-8.17;69.54
50292;BME280;36190;54.980;73.388;2023-03-19T01:49:25;101185.22;;;-8.23;69.15
50292;BME280;36190;54.980;73.388;2023-03-19T01:51:54;101204.38;;;-8.32;69.27
50292;BME280;36190;54.980;73.388;2023-03-19T01:54:23;101216.53;;;-8.39;69.31
50292;BME280;36190;54.980;73.388;2023-03-19T01:56:54;101206.47;;;-8.54;68.90
50292;BME280;36190;54.980;73.388;2023-03-19T01:59:27;101206.88;;;-8.79;68.42
50292;BME280;36190;54.980;73.388;2023-03-19T02:01:58;101229.47;;;-8.89;68.57
50292;BME280;36190;54.980;73.388;2023-03-19T02:04:28;101238.22;;;-9.00;68.35
50292;BME280;36190;54.980;73.388;2023-03-19T02:06:58;101241.88;;;-9.16;68.63
50292;BME280;36190;54.980;73.388;2023-03-19T02:09:27;101228.38;;;-9.39;68.90
50292;BME280;36190;54.980;73.388;2023-03-19T02:11:55;101256.75;;;-9.32;68.98
50292;BME280;36190;54.980;73.388;2023-03-19T02:14:23;101265.44;;;-9.38;68.88
50292;BME280;36190;54.980;73.388;2023-03-19T02:16:53;101275.84;;;-9.43;68.74
50292;BME280;36190;54.980;73.388;2023-03-19T02:19:25;101269.03;;;-9.53;68.88
50292;BME280;36190;54.980;73.388;2023-03-19T02:21:54;101290.63;;;-9.57;69.00
50292;BME280;36190;54.980;73.388;2023-03-19T02:24:24;101298.41;;;-9.59;68.61
50292;BME280;36190;54.980;73.388;2023-03-19T02:26:56;101298.50;;;-9.67;68.53
50292;BME280;36190;54.980;73.388;2023-03-19T02:29:24;101327.75;;;-9.63;67.94
50292;BME280;36190;54.980;73.388;2023-03-19T02:31:51;101315.72;;;-9.69;68.09
50292;BME280;36190;54.980;73.388;2023-03-19T02:34:38;101309.84;;;-9.83;68.11
50292;BME280;36190;54.980;73.388;2023-03-19T02:37:13;101314.19;;;-9.87;67.88
50292;BME280;36190;54.980;73.388;2023-03-19T02:39:49;101329.66;;;-9.82;67.79
50292;BME280;36190;54.980;73.388;2023-03-19T02:42:20;101358.84;;;-9.77;67.68
50292;BME280;36190;54.980;73.388;2023-03-19T02:44:48;101358.88;;;-9.82;67.21
50292;BME280;36190;54.980;73.388;2023-03-19T02:47:16;101357.22;;;-9.87;67.18
50292;BME280;36190;54.980;73.388;2023-03-19T02:49:44;101362.38;;;-9.86;67.07
50292;BME280;36190;54.980;73.388;2023-03-19T02:52:11;101356.34;;;-9.86;66.47
50292;BME280;36190;54.980;73.388;2023-03-19T02:54:39;101377.00;;;-9.83;66.03
50292;BME280;36190;54.980;73.388;2023-03-19T02:57:07;101373.63;;;-9.95;66.07
50292;BME280;36190;54.980;73.388;2023-03-19T02:59:36;101375.34;;;-9.90;65.86
50292;BME280;36190;54.980;73.388;2023-03-19T03:02:04;101388.22;;;-9.84;65.69
50292;BME280;36190;54.980;73.388;2023-03-19T03:04:32;101397.63;;;-9.80;65.53
50292;BME280;36190;54.980;73.388;2023-03-19T03:07:00;101404.50;;;-9.79;65.06
50292;BME280;36190;54.980;73.388;2023-03-19T03:09:28;101411.38;;;-9.78;64.90
50292;BME280;36190;54.980;73.388;2023-03-19T03:11:55;101423.41;;;-9.74;64.97
50292;BME280;36190;54.980;73.388;2023-03-19T03:14:23;101433.72;;;-9.69;64.87
50292;BME280;36190;54.980;73.388;2023-03-19T03:16:52;101425.97;;;-9.69;64.57
50292;BME280;36190;54.980;73.388;2023-03-19T03:19:19;101426.75;;;-9.62;64.38
50292;BME280;36190;54.980;73.388;2023-03-19T03:21:48;101437.09;;;-9.62;64.34
50292;BME280;36190;54.980;73.388;2023-03-19T03:24:16;101445.75;;;-9.67;63.87
50292;BME280;36190;54.980;73.388;2023-03-19T03:26:43;101463.91;;;-9.77;63.80
50292;BME280;36190;54.980;73.388;2023-03-19T03:29:11;101471.69;;;-9.84;63.85
50292;BME280;36190;54.980;73.388;2023-03-19T03:31:38;101473.44;;;-9.87;63.45
50292;BME280;36190;54.980;73.388;2023-03-19T03:34:07;101481.22;;;-9.92;63.31
50292;BME280;36190;54.980;73.388;2023-03-19T03:36:35;101489.00;;;-9.97;62.57
50292;BME280;36190;54.980;73.388;2023-03-19T03:39:04;101510.50;;;-9.95;62.39
50292;BME280;36190;54.980;73.388;2023-03-19T03:41:31;101497.63;;;-9.98;62.37
50292;BME280;36190;54.980;73.388;2023-03-19T03:43:59;101507.88;;;-9.88;62.06
50292;BME280;36190;54.980;73.388;2023-03-19T03:46:26;101519.06;;;-9.86;61.84
50292;BME280;36190;54.980;73.388;2023-03-19T03:48:54;101510.44;;;-9.84;61.51
50292;BME280;36190;54.980;73.388;2023-03-19T03:51:23;101526.78;;;-9.80;61.39
50292;BME280;36190;54.980;73.388;2023-03-19T03:53:51;101527.66;;;-9.83;61.24
50292;BME280;36190;54.980;73.388;2023-03-19T03:56:18;101530.25;;;-9.84;61.27
50292;BME280;36190;54.980;73.388;2023-03-19T03:58:46;101531.06;;;-9.79;60.96
50292;BME280;36190;54.980;73.388;2023-03-19T04:01:14;101545.75;;;-9.84;60.43
50292;BME280;36190;54.980;73.388;2023-03-19T04:03:42;101547.50;;;-9.89;60.28
50292;BME280;36190;54.980;73.388;2023-03-19T04:06:14;101529.50;;;-10.03;60.55
50292;BME280;36190;54.980;73.388;2023-03-19T04:08:43;101553.53;;;-9.89;60.02
50292;BME280;36190;54.980;73.388;2023-03-19T04:11:11;101553.50;;;-9.87;59.94
50292;BME280;36190;54.980;73.388;2023-03-19T04:13:38;101559.53;;;-9.90;59.92
50292;BME280;36190;54.980;73.388;2023-03-19T04:16:07;101571.53;;;-9.75;59.93
50292;BME280;36190;54.980;73.388;2023-03-19T04:18:35;101590.44;;;-9.70;59.49
50292;BME280;36190;54.980;73.388;2023-03-19T04:21:04;101593.88;;;-9.71;59.09
50292;BME280;36190;54.980;73.388;2023-03-19T04:23:32;101586.13;;;-9.69;58.64
50292;BME280;36190;54.980;73.388;2023-03-19T04:26:02;101594.72;;;-9.69;58.51
50292;BME280;36190;54.980;73.388;2023-03-19T04:28:30;101599.88;;;-9.61;58.61
50292;BME280;36190;54.980;73.388;2023-03-19T04:30:58;101603.25;;;-9.54;58.52
50292;BME280;36190;54.980;73.388;2023-03-19T04:33:26;101615.28;;;-9.47;58.67
50292;BME280;36190;54.980;73.388;2023-03-19T04:35:54;101629.84;;;-9.36;58.44
50292;BME280;36190;54.980;73.388;2023-03-19T04:38:22;101635.03;;;-9.33;58.45
50292;BME280;36190;54.980;73.388;2023-03-19T04:40:51;101635.84;;;-9.28;57.83
50292;BME280;36190;54.980;73.388;2023-03-19T04:43:20;101641.91;;;-9.32;57.83
50292;BME280;36190;54.980;73.388;2023-03-19T04:45:48;101643.66;;;-9.34;57.80
50292;BME280;36190;54.980;73.388;2023-03-19T04:48:15;101649.69;;;-9.35;57.89
50292;BME280;36190;54.980;73.388;2023-03-19T04:50:43;101663.44;;;-9.32;57.60
50292;BME280;36190;54.980;73.388;2023-03-19T04:53:12;101659.09;;;-9.27;57.32
50292;BME280;36190;54.980;73.388;2023-03-19T04:55:40;101668.59;;;-9.29;57.10
50292;BME280;36190;54.980;73.388;2023-03-19T04:58:07;101672.91;;;-9.26;57.04
50292;BME280;36190;54.980;73.388;2023-03-19T05:00:37;101684.91;;;-9.16;57.14
50292;BME280;36190;54.980;73.388;2023-03-19T05:03:04;101687.41;;;-9.06;56.86
50292;BME280;36190;54.980;73.388;2023-03-19T05:05:32;101694.31;;;-9.04;56.53
50292;BME280;36190;54.980;73.388;2023-03-19T05:07:59;101696.94;;;-9.12;56.11
50292;BME280;36190;54.980;73.388;2023-03-19T05:10:28;101699.56;;;-9.19;55.75
50292;BME280;36190;54.980;73.388;2023-03-19T05:12:57;101703.91;;;-9.21;56.15
50292;BME280;36190;54.980;73.388;2023-03-19T05:15:24;101721.06;;;-9.13;55.99
50292;BME280;36190;54.980;73.388;2023-03-19T05:17:53;101702.94;;;-9.06;56.07
50292;BME280;36190;54.980;73.388;2023-03-19T05:20:21;101717.47;;;-8.90;55.95
50292;BME280;36190;54.980;73.388;2023-03-19T05:22:51;101714.88;;;-8.85;55.21
50292;BME280;36190;54.980;73.388;2023-03-19T05:25:18;101725.25;;;-8.90;54.90
50292;BME280;36190;54.980;73.388;2023-03-19T05:27:46;101733.00;;;-8.91;55.02
50292;BME280;36190;54.980;73.388;2023-03-19T05:30:13;101743.31;;;-8.84;54.60
50292;BME280;36190;54.980;73.388;2023-03-19T05:32:42;101755.41;;;-8.89;53.91
50292;BME280;36190;54.980;73.388;2023-03-19T05:35:13;101745.13;;;-8.95;53.55
50292;BME280;36190;54.980;73.388;2023-03-19T05:37:40;101743.38;;;-8.93;53.50
50292;BME280;36190;54.980;73.388;2023-03-19T05:40:09;101745.94;;;-8.88;53.33
50292;BME280;36190;54.980;73.388;2023-03-19T05:42:37;101757.91;;;-8.72;53.51
50292;BME280;36190;54.980;73.388;2023-03-19T05:45:04;101744.94;;;-8.67;53.05
50292;BME280;36190;54.980;73.388;2023-03-19T05:47:32;101779.44;;;-8.71;52.43
50292;BME280;36190;54.980;73.388;2023-03-19T05:50:00;101760.53;;;-8.76;52.57
50292;BME280;36190;54.980;73.388;2023-03-19T05:52:29;101771.69;;;-8.70;52.10
50292;BME280;36190;54.980;73.388;2023-03-19T05:54:56;101770.84;;;-8.70;52.13
50292;BME280;36190;54.980;73.388;2023-03-19T05:57:24;101767.31;;;-8.60;52.01
50292;BME280;36190;54.980;73.388;2023-03-19T05:59:52;101793.19;;;-8.60;51.71
50292;BME280;36190;54.980;73.388;2023-03-19T06:02:19;101789.81;;;-8.68;51.71
50292;BME280;36190;54.980;73.388;2023-03-19T06:04:47;101796.69;;;-8.67;51.94
50292;BME280;36190;54.980;73.388;2023-03-19T06:07:14;101789.81;;;-8.68;51.94
50292;BME280;36190;54.980;73.388;2023-03-19T06:09:43;101800.16;;;-8.68;51.68
50292;BME280;36190;54.980;73.388;2023-03-19T06:12:11;101806.22;;;-8.77;51.37
50292;BME280;36190;54.980;73.388;2023-03-19T06:14:38;101815.75;;;-8.80;51.63
50292;BME280;36190;54.980;73.388;2023-03-19T06:17:06;101819.13;;;-8.71;51.71
50292;BME280;36190;54.980;73.388;2023-03-19T06:19:34;101828.59;;;-8.66;51.42
50292;BME280;36190;54.980;73.388;2023-03-19T06:22:01;101826.00;;;-8.65;51.59
50292;BME280;36190;54.980;73.388;2023-03-19T06:24:29;101821.59;;;-8.52;51.82
50292;BME280;36190;54.980;73.388;2023-03-19T06:26:58;101843.94;;;-8.38;51.29
50292;BME280;36190;54.980;73.388;2023-03-19T06:29:25;101837.88;;;-8.37;51.24
50292;BME280;36190;54.980;73.388;2023-03-19T06:31:54;101860.28;;;-8.29;51.58
50292;BME280;36190;54.980;73.388;2023-03-19T06:34:22;101848.19;;;-8.30;51.34
50292;BME280;36190;54.980;73.388;2023-03-19T06:36:49;101850.75;;;-8.28;51.34
50292;BME280;36190;54.980;73.388;2023-03-19T06:39:18;101859.44;;;-8.32;51.22
50292;BME280;36190;54.980;73.388;2023-03-19T06:41:46;101859.47;;;-8.38;50.42
50292;BME280;36190;54.980;73.388;2023-03-19T06:44:15;101856.03;;;-8.44;50.80
50292;BME280;36190;54.980;73.388;2023-03-19T06:46:42;101871.50;;;-8.31;50.80
50292;BME280;36190;54.980;73.388;2023-03-19T06:49:10;101875.81;;;-8.29;50.34
50292;BME280;36190;54.980;73.388;2023-03-19T06:51:37;101872.38;;;-8.32;49.89
50292;BME280;36190;54.980;73.388;2023-03-19T06:54:05;101875.00;;;-8.40;49.53
50292;BME280;36190;54.980;73.388;2023-03-19T06:56:33;101875.06;;;-8.49;49.28
50292;BME280;36190;54.980;73.388;2023-03-19T06:59:00;101885.38;;;-8.46;49.93
50292;BME280;36190;54.980;73.388;2023-03-19T07:01:29;101879.31;;;-8.37;49.30
50292;BME280;36190;54.980;73.388;2023-03-19T07:03:57;101879.25;;;-8.26;49.75
50292;BME280;36190;54.980;73.388;2023-03-19T07:06:25;101887.78;;;-8.15;49.19
50292;BME280;36190;54.980;73.388;2023-03-19T07:08:52;101897.31;;;-8.19;48.65
50292;BME280;36190;54.980;73.388;2023-03-19T07:11:19;101887.88;;;-8.27;48.49
50292;BME280;36190;54.980;73.388;2023-03-19T07:13:48;101887.88;;;-8.27;48.21
50292;BME280;36190;54.980;73.388;2023-03-19T07:16:15;101880.09;;;-8.21;48.57
50292;BME280;36190;54.980;73.388;2023-03-19T07:18:44;101898.06;;;-8.06;48.58
50292;BME280;36190;54.980;73.388;2023-03-19T07:21:14;101898.00;;;-7.95;48.24
50292;BME280;36190;54.980;73.388;2023-03-19T07:23:42;101893.56;;;-7.79;48.62
50292;BME280;36190;54.980;73.388;2023-03-19T07:26:11;101894.28;;;-7.61;47.98
50292;BME280;36190;54.980;73.388;2023-03-19T07:28:39;101898.50;;;-7.51;48.19
50292;BME280;36190;54.980;73.388;2023-03-19T07:31:06;101926.00;;;-7.34;47.62
50292;BME280;36190;54.980;73.388;2023-03-19T07:33:34;101919.97;;;-7.36;47.32
50292;BME280;36190;54.980;73.388;2023-03-19T07:36:03;101909.56;;;-7.33;47.06
50292;BME280;36190;54.980;73.388;2023-03-19T07:38:31;101910.34;;;-7.23;47.33
50292;BME280;36190;54.980;73.388;2023-03-19T07:40:59;101937.00;;;-7.10;46.84
50292;BME280;36190;54.980;73.388;2023-03-19T07:43:27;101918.78;;;-7.06;46.78
50292;BME280;36190;54.980;73.388;2023-03-19T07:45:54;101924.75;;;-6.96;47.16
50292;BME280;36190;54.980;73.388;2023-03-19T07:48:21;101923.63;;;-6.74;47.03
50292;BME280;36190;54.980;73.388;2023-03-19T07:50:49;101924.28;;;-6.58;46.79
50292;BME280;36190;54.980;73.388;2023-03-19T07:53:18;101928.50;;;-6.48;45.88
50292;BME280;36190;54.980;73.388;2023-03-19T07:55:46;101927.56;;;-6.44;45.90
50292;BME280;36190;54.980;73.388;2023-03-19T07:58:14;101929.97;;;-6.30;45.75
50292;BME280;36190;54.980;73.388;2023-03-19T08:00:42;101930.69;;;-6.17;45.44
50292;BME280;36190;54.980;73.388;2023-03-19T08:03:11;101965.09;;;-6.02;44.95
50292;BME280;36190;54.980;73.388;2023-03-19T08:05:38;101934.03;;;-6.10;44.36
50292;BME280;36190;54.980;73.388;2023-03-19T08:08:06;101940.94;;;-6.08;44.64
50292;BME280;36190;54.980;73.388;2023-03-19T08:10:35;101941.66;;;-5.99;44.75
50292;BME280;36190;54.980;73.388;2023-03-19T08:13:03;101960.38;;;-5.78;44.27
50292;BME280;36190;54.980;73.388;2023-03-19T08:15:31;101943.94;;;-5.79;43.10
50292;BME280;36190;54.980;73.388;2023-03-19T08:17:59;101939.72;;;-5.86;43.20
50292;BME280;36190;54.980;73.388;2023-03-19T08:20:28;101941.22;;;-5.71;43.55
50292;BME280;36190;54.980;73.388;2023-03-19T08:22:56;101945.94;;;-5.42;43.74
50292;BME280;36190;54.980;73.388;2023-03-19T08:25:24;101934.34;;;-5.23;43.08
50292;BME280;36190;54.980;73.388;2023-03-19T08:27:53;101941.84;;;-5.06;43.08
50292;BME280;36190;54.980;73.388;2023-03-19T08:30:21;101939.97;;;-4.98;42.73
50292;BME280;36190;54.980;73.388;2023-03-19T08:32:48;101950.09;;;-4.84;42.72
50292;BME280;36190;54.980;73.388;2023-03-19T08:35:16;101965.25;;;-4.61;42.68
50292;BME280;36190;54.980;73.388;2023-03-19T08:37:44;101953.59;;;-4.43;42.61
50292;BME280;36190;54.980;73.388;2023-03-19T08:40:12;101970.50;;;-4.20;42.41
50292;BME280;36190;54.980;73.388;2023-03-19T08:42:39;101959.81;;;-4.09;42.11
50292;BME280;36190;54.980;73.388;2023-03-19T08:45:11;101974.44;;;-4.02;41.46
50292;BME280;36190;54.980;73.388;2023-03-19T08:47:39;101967.56;;;-4.04;41.19
50292;BME280;36190;54.980;73.388;2023-03-19T08:50:07;101966.78;;;-4.09;41.47
50292;BME280;36190;54.980;73.388;2023-03-19T08:52:35;101983.09;;;-3.99;41.03
50292;BME280;36190;54.980;73.388;2023-03-19T08:55:03;101967.25;;;-3.90;41.04
50292;BME280;36190;54.980;73.388;2023-03-19T08:57:31;101966.22;;;-3.84;40.94
50292;BME280;36190;54.980;73.388;2023-03-19T08:59:58;101968.63;;;-3.75;40.89
50292;BME280;36190;54.980;73.388;2023-03-19T09:02:28;101966.34;;;-3.53;40.73
50292;BME280;36190;54.980;73.388;2023-03-19T09:04:55;101987.75;;;-3.40;40.45
50292;BME280;36190;54.980;73.388;2023-03-19T09:07:23;101977.31;;;-3.40;40.27
50292;BME280;36190;54.980;73.388;2023-03-19T09:09:50;101978.78;;;-3.28;40.18
50292;BME280;36190;54.980;73.388;2023-03-19T09:12:18;101982.88;;;-3.18;39.90
50292;BME280;36190;54.980;73.388;2023-03-19T09:14:45;101974.59;;;-3.00;39.97
50292;BME280;36190;54.980;73.388;2023-03-19T09:17:12;101981.75;;;-2.76;40.06
50292;BME280;36190;54.980;73.388;2023-03-19T09:19:42;101985.22;;;-2.43;39.90
50292;BME280;36190;54.980;73.388;2023-03-19T09:22:09;101984.31;;;-2.12;39.86
50292;BME280;36190;54.980;73.388;2023-03-19T09:24:36;101990.59;;;-1.89;39.81
50292;BME280;36190;54.980;73.388;2023-03-19T09:27:04;101995.06;;;-1.64;39.66
50292;BME280;36190;54.980;73.388;2023-03-19T09:29:31;101988.91;;;-1.63;38.96
50292;BME280;36190;54.980;73.388;2023-03-19T09:31:59;101995.06;;;-1.64;39.18
50292;BME280;36190;54.980;73.388;2023-03-19T09:34:27;102003.41;;;-1.53;39.08
50292;BME280;36190;54.980;73.388;2023-03-19T09:36:55;102008.94;;;-1.62;38.38
50292;BME280;36190;54.980;73.388;2023-03-19T09:39:23;102007.53;;;-1.73;38.60
50292;BME280;36190;54.980;73.388;2023-03-19T09:42:10;102011.50;;;-1.59;38.43
50292;BME280;36190;54.980;73.388;2023-03-19T09:44:40;102011.78;;;-1.42;38.51
50292;BME280;36190;54.980;73.388;2023-03-19T09:47:23;102019.03;;;-1.23;37.96
50292;BME280;36190;54.980;73.388;2023-03-19T09:49:55;102018.06;;;-1.20;38.02
50292;BME280;36190;54.980;73.388;2023-03-19T09:52:36;102018.91;;;-1.20;37.62
50292;BME280;36190;54.980;73.388;2023-03-19T09:55:14;102025.06;;;-1.21;37.80
50292;BME280;36190;54.980;73.388;2023-03-19T09:57:45;102028.41;;;-1.16;37.84
50292;BME280;36190;54.980;73.388;2023-03-19T10:00:20;102030.16;;;-1.16;37.39
50292;BME280;36190;54.980;73.388;2023-03-19T10:02:53;102023.25;;;-1.19;37.42
50292;BME280;36190;54.980;73.388;2023-03-19T10:05:28;102050.03;;;-1.11;37.20
50292;BME280;36190;54.980;73.388;2023-03-19T10:08:20;102039.25;;;-1.28;37.06
50292;BME280;36190;54.980;73.388;2023-03-19T10:11:02;102033.84;;;-1.22;37.12
50292;BME280;36190;54.980;73.388;2023-03-19T10:13:47;102043.41;;;-0.94;37.12
50292;BME280;36190;54.980;73.388;2023-03-19T10:16:21;102047.03;;;-0.73;37.19
50292;BME280;36190;54.980;73.388;2023-03-19T10:18:52;102055.91;;;-0.51;37.00
50292;BME280;36190;54.980;73.388;2023-03-19T10:21:25;102053.88;;;-0.43;36.67
50292;BME280;36190;54.980;73.388;2023-03-19T10:23:57;102049.59;;;-0.46;36.56
50292;BME280;36190;54.980;73.388;2023-03-19T10:26:29;102048.72;;;-0.46;36.89
50292;BME280;36190;54.980;73.388;2023-03-19T10:29:05;102068.09;;;-0.50;36.40
50292;BME280;36190;54.980;73.388;2023-03-19T10:31:42;102052.28;;;-0.73;35.82
50292;BME280;36190;54.980;73.388;2023-03-19T10:34:24;102053.56;;;-0.85;36.39
50292;BME280;36190;54.980;73.388;2023-03-19T10:36:59;102051.53;;;-0.76;36.30
50292;BME280;36190;54.980;73.388;2023-03-19T10:39:32;102058.88;;;-0.61;36.06
50292;BME280;36190;54.980;73.388;2023-03-19T10:42:09;102055.44;;;-0.39;35.84
50292;BME280;36190;54.980;73.388;2023-03-19T10:44:46;102062.38;;;-0.12;36.15
50292;BME280;36190;54.980;73.388;2023-03-19T10:47:16;102057.88;;;-0.09;36.08
50292;BME280;36190;54.980;73.388;2023-03-19T10:49:45;102055.47;;;-0.15;36.11
50292;BME280;36190;54.980;73.388;2023-03-19T10:52:21;102061.69;;;-0.18;35.95
50292;BME280;36190;54.980;73.388;2023-03-19T10:54:56;102064.94;;;-0.35;36.10
50292;BME280;36190;54.980;73.388;2023-03-19T10:57:29;102056.56;;;-0.46;36.37
50292;BME280;36190;54.980;73.388;2023-03-19T11:00:02;102055.00;;;-0.50;35.97
50292;BME280;36190;54.980;73.388;2023-03-19T11:02:30;102059.38;;;-0.51;36.32
50292;BME280;36190;54.980;73.388;2023-03-19T11:05:21;102057.63;;;-0.50;35.86
50292;BME280;36190;54.980;73.388;2023-03-19T11:07:50;102062.13;;;-0.54;35.82
50292;BME280;36190;54.980;73.388;2023-03-19T11:10:23;102073.34;;;-0.50;35.92
50292;BME280;36190;54.980;73.388;2023-03-19T11:12:54;102083.72;;;-0.47;35.75
50292;BME280;36190;54.980;73.388;2023-03-19T11:15:25;102071.84;;;-0.58;35.47
50292;BME280;36190;54.980;73.388;2023-03-19T11:17:56;102071.44;;;-0.71;35.25
50292;BME280;36190;54.980;73.388;2023-03-19T11:20:28;102059.06;;;-0.67;35.30
50292;BME280;36190;54.980;73.388;2023-03-19T11:22:56;102067.94;;;-0.46;35.56
50292;BME280;36190;54.980;73.388;2023-03-19T11:25:30;102086.22;;;0.05;35.43
50292;BME280;36190;54.980;73.388;2023-03-19T11:28:02;102086.78;;;0.36;35.11
50292;BME280;36190;54.980;73.388;2023-03-19T11:30:43;102081.56;;;0.58;34.49
50292;BME280;36190;54.980;73.388;2023-03-19T11:33:24;102082.72;;;0.73;34.45
50292;BME280;36190;54.980;73.388;2023-03-19T11:36:04;102083.44;;;0.77;34.37
50292;BME280;36190;54.980;73.388;2023-03-19T11:38:39;102091.88;;;0.85;34.30
50292;BME280;36190;54.980;73.388;2023-03-19T11:41:11;102104.97;;;0.87;34.70
50292;BME280;36190;54.980;73.388;2023-03-19T11:43:49;102106.91;;;0.59;33.52
50292;BME280;36190;54.980;73.388;2023-03-19T11:46:35;102095.25;;;0.66;33.36
50292;BME280;36190;54.980;73.388;2023-03-19T11:49:27;102094.69;;;0.80;32.92
50292;BME280;36190;54.980;73.388;2023-03-19T11:52:01;102099.94;;;0.80;33.09
50292;BME280;36190;54.980;73.388;2023-03-19T11:54:39;102094.91;;;0.96;32.68
50292;BME280;36190;54.980;73.388;2023-03-19T11:57:14;102080.25;;;0.91;32.27
50292;BME280;36190;54.980;73.388;2023-03-19T11:59:59;102085.13;;;1.00;32.50
50292;BME280;36190;54.980;73.388;2023-03-19T12:02:45;102096.84;;;1.14;32.54
50292;BME280;36190;54.980;73.388;2023-03-19T12:05:20;102100.16;;;1.19;32.50
50292;BME280;36190;54.980;73.388;2023-03-19T12:08:02;102111.63;;;1.16;32.38
50292;BME280;36190;54.980;73.388;2023-03-19T12:10:51;102088.81;;;0.96;32.17
50292;BME280;36190;54.980;73.388;2023-03-19T12:13:36;102087.31;;;1.11;32.77
50292;BME280;36190;54.980;73.388;2023-03-19T12:16:15;102081.13;;;1.33;32.43
50292;BME280;36190;54.980;73.388;2023-03-19T12:21:51;102081.06;;;1.55;32.38
50292;BME280;36190;54.980;73.388;2023-03-19T12:24:28;102097.50;;;1.60;32.39
50292;BME280;36190;54.980;73.388;2023-03-19T12:27:05;102089.25;;;1.06;32.32
50292;BME280;36190;54.980;73.388;2023-03-19T12:29:47;102085.81;;;-0.08;33.17
50292;BME280;36190;54.980;73.388;2023-03-19T12:32:30;102083.19;;;-1.36;34.27
50292;BME280;36190;54.980;73.388;2023-03-19T12:35:06;102090.72;;;-2.46;35.43
50292;BME280;36190;54.980;73.388;2023-03-19T12:37:40;102091.75;;;-3.21;36.52
50292;BME280;36190;54.980;73.388;2023-03-19T12:40:24;102084.97;;;-3.68;37.27
50292;BME280;36190;54.980;73.388;2023-03-19T12:42:57;102091.94;;;-4.09;37.83
50292;BME280;36190;54.980;73.388;2023-03-19T12:45:32;102090.81;;;-4.42;38.31
50292;BME280;36190;54.980;73.388;2023-03-19T12:48:04;102093.63;;;-4.52;38.76
50292;BME280;36190;54.980;73.388;2023-03-19T12:50:36;102099.03;;;-4.63;38.87
50292;BME280;36190;54.980;73.388;2023-03-19T12:53:08;102093.97;;;-4.73;39.25
50292;BME280;36190;54.980;73.388;2023-03-19T12:55:40;102101.13;;;-4.84;39.48
50292;BME280;36190;54.980;73.388;2023-03-19T12:58:15;102100.50;;;-4.99;39.82